Accueil
METAR-TAF:

METAR-TAF

Aéroports :

Pago Pago, Îles mineures éloignées des États-Unis

Aéroport de Pago Pago

latitude: 14-20S, longitude: 170-43W, altitude: 3 m

Observation

Le bulletin a été fait il y a 41 minutes, à 21:50 UTC
Vent 15 kt de est
Température 29°C
Humidité 89%
Pression 1012 hPa
Visibilité: 19.3 km
Quelques nuages à une hauteur de 2000 ft
Nuages épars à une hauteur de 4000 ft
Nuages fragmentés à une hauteur de 10000 ft

METAR: NSTU 232150Z 10015KT 12SM FEW020 SCT040 BKN100 29/27 A2987 RMK SLP117 T02920271

Heure: 11:31 (22:31 UTC)

Prévision

Le bulletin a été fait il y a 4 heures et 54 minutes, à 17:37 UTC
Prévision valable du 23 à 18 UTC au 24 à 18 UTC
Vent 15 kt de est
Visibilité: 10 km
Nuages épars à une hauteur de 1500 ft
Nuages fragmentés à une hauteur de 4000 ft
Ciel couvert à une hauteur de 10000 ft
averses à proximité

TAF: NSTU 231737Z 2318/2418 10015KT P6SM VCSH SCT015 BKN040 OVC100

Observations et prévisions météorologiques de plus de 4000 aéroports (messages METAR et TAF).

Les stations disponibles sont représentées par des disques jaunes et rouges sur la carte.

Passer la souris dessus pour voir le nom de la station.

Cliquer dessus pour voir les observations et prévisions météorologiques.

Pour changer de carte: cliquez sur les boutons verts avec une croix noire pour zoomer, sur le bouton vert avec un tiret pour effectuer un zoom arrière, ou sur les flèches vertes pour les cartes adjacentes.


METAR-TAF: